sensor_id;sensor_type;location;lat;lon;timestamp;P1;durP1;ratioP1;P2;durP2;ratioP2
17496;SDS011;62150;43.582;1.456;2023-05-10T05:16:54;10.67;;;2.80;;
17496;SDS011;62150;43.582;1.456;2023-05-10T05:19:22;9.50;;;2.20;;
17496;SDS011;62150;43.582;1.456;2023-05-10T05:21:50;10.63;;;2.70;;
17496;SDS011;62150;43.582;1.456;2023-05-10T05:24:17;12.17;;;2.30;;
17496;SDS011;62150;43.582;1.456;2023-05-10T05:26:45;8.13;;;2.30;;
17496;SDS011;62150;43.582;1.456;2023-05-10T05:29:12;10.37;;;2.67;;
17496;SDS011;62150;43.582;1.456;2023-05-10T05:31:39;10.17;;;2.50;;
17496;SDS011;62150;43.582;1.456;2023-05-10T05:34:08;9.30;;;2.50;;
17496;SDS011;62150;43.582;1.456;2023-05-10T05:36:36;10.50;;;2.67;;
17496;SDS011;62150;43.582;1.456;2023-05-10T05:39:04;8.53;;;2.37;;
17496;SDS011;62150;43.582;1.456;2023-05-10T05:41:31;8.37;;;2.40;;
17496;SDS011;62150;43.582;1.456;2023-05-10T05:43:59;8.67;;;2.40;;
17496;SDS011;62150;43.582;1.456;2023-05-10T05:46:26;11.73;;;2.20;;
17496;SDS011;62150;43.582;1.456;2023-05-10T05:48:54;8.70;;;2.27;;
17496;SDS011;62150;43.582;1.456;2023-05-10T05:51:23;9.80;;;2.60;;
17496;SDS011;62150;43.582;1.456;2023-05-10T05:53:51;7.40;;;2.20;;
17496;SDS011;62150;43.582;1.456;2023-05-10T05:56:18;7.63;;;2.20;;
17496;SDS011;62150;43.582;1.456;2023-05-10T05:58:49;10.33;;;2.67;;
17496;SDS011;62150;43.582;1.456;2023-05-10T06:01:16;8.03;;;2.27;;
17496;SDS011;62150;43.582;1.456;2023-05-10T06:03:44;12.67;;;2.80;;
17496;SDS011;62150;43.582;1.456;2023-05-10T06:06:11;8.00;;;2.10;;
17496;SDS011;62150;43.582;1.456;2023-05-10T06:08:40;9.07;;;2.53;;
17496;SDS011;62150;43.582;1.456;2023-05-10T06:11:08;8.13;;;2.50;;
17496;SDS011;62150;43.582;1.456;2023-05-10T06:13:35;6.57;;;2.23;;
17496;SDS011;62150;43.582;1.456;2023-05-10T06:16:03;7.33;;;2.43;;
17496;SDS011;62150;43.582;1.456;2023-05-10T06:18:31;10.07;;;2.43;;
17496;SDS011;62150;43.582;1.456;2023-05-10T06:20:58;9.20;;;2.40;;
17496;SDS011;62150;43.582;1.456;2023-05-10T06:23:26;10.40;;;2.70;;
17496;SDS011;62150;43.582;1.456;2023-05-10T06:25:55;11.37;;;2.57;;
17496;SDS011;62150;43.582;1.456;2023-05-10T06:28:22;7.10;;;2.17;;
17496;SDS011;62150;43.582;1.456;2023-05-10T06:30:50;7.70;;;2.10;;
17496;SDS011;62150;43.582;1.456;2023-05-10T06:33:17;7.53;;;2.13;;
17496;SDS011;62150;43.582;1.456;2023-05-10T06:35:45;9.23;;;2.33;;
17496;SDS011;62150;43.582;1.456;2023-05-10T06:38:12;10.97;;;2.40;;
17496;SDS011;62150;43.582;1.456;2023-05-10T06:40:40;9.03;;;2.50;;
17496;SDS011;62150;43.582;1.456;2023-05-10T06:43:10;13.43;;;3.17;;
17496;SDS011;62150;43.582;1.456;2023-05-10T06:45:37;7.17;;;2.20;;
17496;SDS011;62150;43.582;1.456;2023-05-10T06:48:05;8.93;;;2.60;;
17496;SDS011;62150;43.582;1.456;2023-05-10T06:50:33;8.33;;;2.40;;
17496;SDS011;62150;43.582;1.456;2023-05-10T06:53:01;9.00;;;2.40;;
17496;SDS011;62150;43.582;1.456;2023-05-10T06:55:28;9.97;;;2.37;;
17496;SDS011;62150;43.582;1.456;2023-05-10T06:57:56;10.43;;;2.27;;
17496;SDS011;62150;43.582;1.456;2023-05-10T07:00:25;10.80;;;2.70;;
17496;SDS011;62150;43.582;1.456;2023-05-10T07:02:52;11.43;;;2.23;;
17496;SDS011;62150;43.582;1.456;2023-05-10T07:05:20;9.07;;;2.43;;
17496;SDS011;62150;43.582;1.456;2023-05-10T07:07:47;7.20;;;2.20;;
17496;SDS011;62150;43.582;1.456;2023-05-10T07:10:15;8.20;;;2.30;;
17496;SDS011;62150;43.582;1.456;2023-05-10T07:12:43;8.90;;;2.43;;
17496;SDS011;62150;43.582;1.456;2023-05-10T07:15:10;8.90;;;2.37;;
17496;SDS011;62150;43.582;1.456;2023-05-10T07:17:39;8.70;;;2.20;;
17496;SDS011;62150;43.582;1.456;2023-05-10T07:20:07;7.80;;;2.20;;
17496;SDS011;62150;43.582;1.456;2023-05-10T07:22:35;8.53;;;2.57;;
17496;SDS011;62150;43.582;1.456;2023-05-10T07:25:03;7.00;;;2.20;;
17496;SDS011;62150;43.582;1.456;2023-05-10T07:27:31;13.10;;;2.20;;
17496;SDS011;62150;43.582;1.456;2023-05-10T07:29:58;9.80;;;2.50;;
17496;SDS011;62150;43.582;1.456;2023-05-10T07:32:26;9.90;;;2.50;;
17496;SDS011;62150;43.582;1.456;2023-05-10T07:34:55;12.17;;;2.67;;
17496;SDS011;62150;43.582;1.456;2023-05-10T07:37:22;9.40;;;2.30;;
17496;SDS011;62150;43.582;1.456;2023-05-10T07:39:50;8.10;;;2.20;;
17496;SDS011;62150;43.582;1.456;2023-05-10T07:42:17;10.83;;;2.60;;
17496;SDS011;62150;43.582;1.456;2023-05-10T07:44:45;8.20;;;2.33;;
17496;SDS011;62150;43.582;1.456;2023-05-10T07:47:12;11.03;;;2.37;;
17496;SDS011;62150;43.582;1.456;2023-05-10T07:49:40;8.77;;;2.23;;
17496;SDS011;62150;43.582;1.456;2023-05-10T07:52:09;9.27;;;2.10;;
17496;SDS011;62150;43.582;1.456;2023-05-10T07:54:37;8.67;;;2.20;;
17496;SDS011;62150;43.582;1.456;2023-05-10T07:57:04;10.80;;;2.80;;
17496;SDS011;62150;43.582;1.456;2023-05-10T07:59:32;8.23;;;2.37;;
17496;SDS011;62150;43.582;1.456;2023-05-10T08:01:59;9.63;;;2.40;;
17496;SDS011;62150;43.582;1.456;2023-05-10T08:04:27;8.53;;;2.27;;
17496;SDS011;62150;43.582;1.456;2023-05-10T08:06:54;9.37;;;2.23;;
17496;SDS011;62150;43.582;1.456;2023-05-10T08:09:23;9.57;;;2.30;;
17496;SDS011;62150;43.582;1.456;2023-05-10T08:11:51;10.17;;;2.50;;
17496;SDS011;62150;43.582;1.456;2023-05-10T08:14:18;10.43;;;2.63;;
17496;SDS011;62150;43.582;1.456;2023-05-10T08:16:46;13.70;;;2.80;;
17496;SDS011;62150;43.582;1.456;2023-05-10T08:19:13;7.83;;;2.30;;
17496;SDS011;62150;43.582;1.456;2023-05-10T08:21:44;10.67;;;2.60;;
17496;SDS011;62150;43.582;1.456;2023-05-10T08:24:11;8.17;;;2.33;;
17496;SDS011;62150;43.582;1.456;2023-05-10T08:26:41;8.70;;;2.67;;
17496;SDS011;62150;43.582;1.456;2023-05-10T08:29:08;9.10;;;2.30;;
17496;SDS011;62150;43.582;1.456;2023-05-10T08:31:36;10.57;;;3.07;;
17496;SDS011;62150;43.582;1.456;2023-05-10T08:34:03;8.73;;;2.40;;
17496;SDS011;62150;43.582;1.456;2023-05-10T08:36:31;7.97;;;2.47;;
17496;SDS011;62150;43.582;1.456;2023-05-10T08:38:58;8.63;;;2.60;;
17496;SDS011;62150;43.582;1.456;2023-05-10T08:41:26;8.17;;;2.17;;
17496;SDS011;62150;43.582;1.456;2023-05-10T08:43:55;8.67;;;2.30;;
17496;SDS011;62150;43.582;1.456;2023-05-10T08:46:23;10.77;;;2.27;;
17496;SDS011;62150;43.582;1.456;2023-05-10T08:48:52;13.88;;;2.50;;
17496;SDS011;62150;43.582;1.456;2023-05-10T08:51:22;8.13;;;2.00;;
17496;SDS011;62150;43.582;1.456;2023-05-10T08:53:52;8.33;;;2.40;;
17496;SDS011;62150;43.582;1.456;2023-05-10T08:56:20;8.47;;;2.20;;
17496;SDS011;62150;43.582;1.456;2023-05-10T08:58:48;8.73;;;2.27;;
17496;SDS011;62150;43.582;1.456;2023-05-10T09:01:18;9.07;;;2.03;;
17496;SDS011;62150;43.582;1.456;2023-05-10T09:03:46;9.53;;;2.47;;
17496;SDS011;62150;43.582;1.456;2023-05-10T09:06:14;8.67;;;2.13;;
17496;SDS011;62150;43.582;1.456;2023-05-10T09:08:42;9.93;;;2.17;;
17496;SDS011;62150;43.582;1.456;2023-05-10T09:11:11;8.73;;;2.07;;
17496;SDS011;62150;43.582;1.456;2023-05-10T09:13:39;10.97;;;2.23;;
17496;SDS011;62150;43.582;1.456;2023-05-10T09:16:08;9.77;;;2.40;;
17496;SDS011;62150;43.582;1.456;2023-05-10T09:18:37;8.60;;;2.13;;
17496;SDS011;62150;43.582;1.456;2023-05-10T09:21:05;9.20;;;2.00;;
17496;SDS011;62150;43.582;1.456;2023-05-10T09:23:32;9.37;;;2.13;;
17496;SDS011;62150;43.582;1.456;2023-05-10T09:26:03;8.47;;;2.10;;
17496;SDS011;62150;43.582;1.456;2023-05-10T09:28:31;7.73;;;2.03;;
17496;SDS011;62150;43.582;1.456;2023-05-10T09:30:59;7.40;;;2.00;;
17496;SDS011;62150;43.582;1.456;2023-05-10T09:33:27;8.40;;;2.23;;
17496;SDS011;62150;43.582;1.456;2023-05-10T09:36:05;10.23;;;2.10;;
17496;SDS011;62150;43.582;1.456;2023-05-10T09:38:44;6.93;;;2.13;;
17496;SDS011;62150;43.582;1.456;2023-05-10T09:41:16;7.37;;;1.80;;
17496;SDS011;62150;43.582;1.456;2023-05-10T09:43:45;8.33;;;2.00;;
17496;SDS011;62150;43.582;1.456;2023-05-10T09:46:12;6.90;;;1.80;;
17496;SDS011;62150;43.582;1.456;2023-05-10T09:48:41;6.57;;;1.97;;
17496;SDS011;62150;43.582;1.456;2023-05-10T09:51:16;4.67;;;1.80;;
17496;SDS011;62150;43.582;1.456;2023-05-10T09:53:46;9.03;;;2.17;;
17496;SDS011;62150;43.582;1.456;2023-05-10T09:59:04;9.60;;;2.27;;
17496;SDS011;62150;43.582;1.456;2023-05-10T10:01:32;7.83;;;2.00;;
17496;SDS011;62150;43.582;1.456;2023-05-10T10:04:02;6.50;;;1.93;;
17496;SDS011;62150;43.582;1.456;2023-05-10T10:06:36;7.80;;;2.10;;
17496;SDS011;62150;43.582;1.456;2023-05-10T10:09:04;7.57;;;2.07;;
17496;SDS011;62150;43.582;1.456;2023-05-10T10:11:33;7.53;;;2.20;;
17496;SDS011;62150;43.582;1.456;2023-05-10T10:14:01;8.40;;;2.23;;
17496;SDS011;62150;43.582;1.456;2023-05-10T10:16:29;8.13;;;2.00;;
17496;SDS011;62150;43.582;1.456;2023-05-10T10:18:57;8.23;;;2.40;;
17496;SDS011;62150;43.582;1.456;2023-05-10T10:21:25;7.70;;;2.00;;
17496;SDS011;62150;43.582;1.456;2023-05-10T10:23:54;8.60;;;2.10;;
17496;SDS011;62150;43.582;1.456;2023-05-10T10:26:21;7.77;;;2.30;;
17496;SDS011;62150;43.582;1.456;2023-05-10T10:28:51;8.37;;;2.73;;
17496;SDS011;62150;43.582;1.456;2023-05-10T10:31:32;7.40;;;2.00;;
17496;SDS011;62150;43.582;1.456;2023-05-10T10:34:05;8.27;;;2.23;;
17496;SDS011;62150;43.582;1.456;2023-05-10T10:36:39;7.90;;;1.90;;
17496;SDS011;62150;43.582;1.456;2023-05-10T10:39:10;5.83;;;2.03;;
17496;SDS011;62150;43.582;1.456;2023-05-10T10:41:38;6.95;;;1.60;;
17496;SDS011;62150;43.582;1.456;2023-05-10T10:44:22;6.07;;;1.80;;
17496;SDS011;62150;43.582;1.456;2023-05-10T10:47:22;7.10;;;2.03;;
17496;SDS011;62150;43.582;1.456;2023-05-10T10:50:02;8.67;;;2.17;;
17496;SDS011;62150;43.582;1.456;2023-05-10T10:52:31;5.00;;;1.63;;
17496;SDS011;62150;43.582;1.456;2023-05-10T10:55:01;8.97;;;2.00;;
17496;SDS011;62150;43.582;1.456;2023-05-10T10:57:31;8.63;;;1.98;;
17496;SDS011;62150;43.582;1.456;2023-05-10T11:00:18;6.87;;;2.00;;
17496;SDS011;62150;43.582;1.456;2023-05-10T11:02:48;6.25;;;2.00;;
17496;SDS011;62150;43.582;1.456;2023-05-10T11:08:10;7.10;;;1.90;;
17496;SDS011;62150;43.582;1.456;2023-05-10T11:10:50;6.90;;;1.80;;
17496;SDS011;62150;43.582;1.456;2023-05-10T11:13:29;6.18;;;2.28;;
17496;SDS011;62150;43.582;1.456;2023-05-10T11:15:58;7.82;;;2.00;;
17496;SDS011;62150;43.582;1.456;2023-05-10T11:18:35;8.83;;;1.93;;
17496;SDS011;62150;43.582;1.456;2023-05-10T11:21:03;7.05;;;1.80;;
17496;SDS011;62150;43.582;1.456;2023-05-10T11:23:31;8.65;;;2.20;;
17496;SDS011;62150;43.582;1.456;2023-05-10T11:26:14;8.48;;;2.40;;
17496;SDS011;62150;43.582;1.456;2023-05-10T11:28:42;7.32;;;2.30;;
17496;SDS011;62150;43.582;1.456;2023-05-10T11:31:12;7.95;;;2.20;;
17496;SDS011;62150;43.582;1.456;2023-05-10T11:33:43;8.20;;;2.00;;
17496;SDS011;62150;43.582;1.456;2023-05-10T11:36:12;8.65;;;2.15;;
17496;SDS011;62150;43.582;1.456;2023-05-10T11:38:40;6.73;;;2.10;;
17496;SDS011;62150;43.582;1.456;2023-05-10T11:41:08;6.43;;;2.05;;
17496;SDS011;62150;43.582;1.456;2023-05-10T11:43:37;6.82;;;1.90;;
17496;SDS011;62150;43.582;1.456;2023-05-10T11:46:06;5.78;;;1.80;;
17496;SDS011;62150;43.582;1.456;2023-05-10T11:48:34;6.82;;;2.08;;
17496;SDS011;62150;43.582;1.456;2023-05-10T11:51:01;4.60;;;1.70;;
17496;SDS011;62150;43.582;1.456;2023-05-10T11:53:29;8.03;;;2.30;;
17496;SDS011;62150;43.582;1.456;2023-05-10T11:56:02;4.43;;;1.63;;
17496;SDS011;62150;43.582;1.456;2023-05-10T11:58:30;4.57;;;1.90;;
17496;SDS011;62150;43.582;1.456;2023-05-10T12:01:00;7.67;;;1.70;;
17496;SDS011;62150;43.582;1.456;2023-05-10T12:03:28;5.27;;;1.70;;
17496;SDS011;62150;43.582;1.456;2023-05-10T12:05:56;5.95;;;1.95;;
17496;SDS011;62150;43.582;1.456;2023-05-10T12:08:24;5.10;;;1.60;;
17496;SDS011;62150;43.582;1.456;2023-05-10T12:10:53;3.37;;;1.43;;
17496;SDS011;62150;43.582;1.456;2023-05-10T12:13:30;3.67;;;1.50;;
17496;SDS011;62150;43.582;1.456;2023-05-10T12:15:59;5.57;;;1.70;;
17496;SDS011;62150;43.582;1.456;2023-05-10T12:18:38;5.53;;;1.42;;
17496;SDS011;62150;43.582;1.456;2023-05-10T12:21:07;5.90;;;1.48;;
17496;SDS011;62150;43.582;1.456;2023-05-10T12:23:37;3.23;;;1.40;;
17496;SDS011;62150;43.582;1.456;2023-05-10T12:26:05;3.67;;;1.67;;
17496;SDS011;62150;43.582;1.456;2023-05-10T12:28:35;5.80;;;1.80;;
17496;SDS011;62150;43.582;1.456;2023-05-10T12:31:05;5.57;;;1.60;;
17496;SDS011;62150;43.582;1.456;2023-05-10T12:33:35;6.17;;;2.00;;
17496;SDS011;62150;43.582;1.456;2023-05-10T12:36:06;6.43;;;2.00;;
17496;SDS011;62150;43.582;1.456;2023-05-10T12:38:35;9.87;;;2.20;;
17496;SDS011;62150;43.582;1.456;2023-05-10T12:41:04;5.10;;;1.70;;
17496;SDS011;62150;43.582;1.456;2023-05-10T12:43:33;8.63;;;2.30;;
17496;SDS011;62150;43.582;1.456;2023-05-10T12:46:05;6.32;;;1.73;;
17496;SDS011;62150;43.582;1.456;2023-05-10T12:48:34;4.70;;;2.00;;
17496;SDS011;62150;43.582;1.456;2023-05-10T12:51:02;6.03;;;1.70;;
17496;SDS011;62150;43.582;1.456;2023-05-10T12:53:30;7.38;;;1.83;;
17496;SDS011;62150;43.582;1.456;2023-05-10T12:55:58;5.82;;;1.80;;
17496;SDS011;62150;43.582;1.456;2023-05-10T12:58:25;6.80;;;1.63;;
17496;SDS011;62150;43.582;1.456;2023-05-10T13:00:53;5.75;;;1.52;;
17496;SDS011;62150;43.582;1.456;2023-05-10T13:03:22;5.75;;;1.35;;
17496;SDS011;62150;43.582;1.456;2023-05-10T13:05:50;5.63;;;1.63;;
17496;SDS011;62150;43.582;1.456;2023-05-10T13:08:17;5.82;;;1.65;;
17496;SDS011;62150;43.582;1.456;2023-05-10T13:10:45;3.65;;;1.50;;
17496;SDS011;62150;43.582;1.456;2023-05-10T13:13:13;2.33;;;1.35;;
17496;SDS011;62150;43.582;1.456;2023-05-10T13:15:41;3.70;;;1.45;;
17496;SDS011;62150;43.582;1.456;2023-05-10T13:18:09;3.33;;;1.30;;
17496;SDS011;62150;43.582;1.456;2023-05-10T13:20:38;4.25;;;1.40;;
17496;SDS011;62150;43.582;1.456;2023-05-10T13:23:05;3.45;;;1.40;;
17496;SDS011;62150;43.582;1.456;2023-05-10T13:25:33;5.00;;;1.70;;
17496;SDS011;62150;43.582;1.456;2023-05-10T13:28:00;3.50;;;1.40;;
17496;SDS011;62150;43.582;1.456;2023-05-10T13:30:28;3.50;;;1.45;;
17496;SDS011;62150;43.582;1.456;2023-05-10T13:32:55;3.58;;;1.40;;
17496;SDS011;62150;43.582;1.456;2023-05-10T13:35:23;5.03;;;1.45;;
17496;SDS011;62150;43.582;1.456;2023-05-10T13:37:52;5.28;;;1.50;;
17496;SDS011;62150;43.582;1.456;2023-05-10T13:40:21;4.05;;;1.42;;
17496;SDS011;62150;43.582;1.456;2023-05-10T13:42:49;2.78;;;1.45;;
17496;SDS011;62150;43.582;1.456;2023-05-10T13:45:18;3.72;;;1.40;;
17496;SDS011;62150;43.582;1.456;2023-05-10T13:47:45;3.55;;;1.50;;
17496;SDS011;62150;43.582;1.456;2023-05-10T13:50:13;2.75;;;1.40;;
17496;SDS011;62150;43.582;1.456;2023-05-10T13:52:40;6.18;;;1.85;;
17496;SDS011;62150;43.582;1.456;2023-05-10T13:55:09;3.58;;;1.50;;
17496;SDS011;62150;43.582;1.456;2023-05-10T13:57:38;7.22;;;1.63;;
17496;SDS011;62150;43.582;1.456;2023-05-10T14:00:06;4.32;;;1.50;;
17496;SDS011;62150;43.582;1.456;2023-05-10T14:02:34;7.85;;;1.75;;
17496;SDS011;62150;43.582;1.456;2023-05-10T14:05:02;6.25;;;1.75;;
17496;SDS011;62150;43.582;1.456;2023-05-10T14:07:30;5.50;;;1.70;;
17496;SDS011;62150;43.582;1.456;2023-05-10T14:09:57;5.50;;;1.80;;
17496;SDS011;62150;43.582;1.456;2023-05-10T14:12:26;5.13;;;1.80;;
17496;SDS011;62150;43.582;1.456;2023-05-10T14:14:54;3.97;;;1.70;;
17496;SDS011;62150;43.582;1.456;2023-05-10T14:17:23;5.93;;;1.70;;
17496;SDS011;62150;43.582;1.456;2023-05-10T14:19:50;8.18;;;2.00;;
17496;SDS011;62150;43.582;1.456;2023-05-10T14:22:18;7.00;;;2.00;;
17496;SDS011;62150;43.582;1.456;2023-05-10T14:24:46;5.18;;;1.70;;
17496;SDS011;62150;43.582;1.456;2023-05-10T14:27:13;6.63;;;1.88;;
17496;SDS011;62150;43.582;1.456;2023-05-10T14:29:42;5.43;;;1.80;;
17496;SDS011;62150;43.582;1.456;2023-05-10T14:32:09;4.28;;;1.70;;
17496;SDS011;62150;43.582;1.456;2023-05-10T14:34:37;7.43;;;1.73;;
17496;SDS011;62150;43.582;1.456;2023-05-10T14:37:04;4.43;;;1.60;;
17496;SDS011;62150;43.582;1.456;2023-05-10T14:39:32;6.55;;;1.85;;
17496;SDS011;62150;43.582;1.456;2023-05-10T14:42:00;6.47;;;1.80;;
17496;SDS011;62150;43.582;1.456;2023-05-10T14:44:28;6.80;;;1.70;;
17496;SDS011;62150;43.582;1.456;2023-05-10T14:46:57;4.55;;;1.60;;
17496;SDS011;62150;43.582;1.456;2023-05-10T14:49:24;3.00;;;1.40;;
17496;SDS011;62150;43.582;1.456;2023-05-10T14:51:52;7.18;;;1.73;;
17496;SDS011;62150;43.582;1.456;2023-05-10T14:54:20;5.10;;;1.70;;
17496;SDS011;62150;43.582;1.456;2023-05-10T14:56:47;3.75;;;1.50;;
17496;SDS011;62150;43.582;1.456;2023-05-10T14:59:15;5.22;;;1.70;;
17496;SDS011;62150;43.582;1.456;2023-05-10T15:01:42;4.03;;;1.80;;
17496;SDS011;62150;43.582;1.456;2023-05-10T15:04:11;4.72;;;1.60;;
17496;SDS011;62150;43.582;1.456;2023-05-10T15:06:41;3.47;;;1.50;;
17496;SDS011;62150;43.582;1.456;2023-05-10T15:09:08;2.90;;;1.50;;
17496;SDS011;62150;43.582;1.456;2023-05-10T15:11:36;5.13;;;1.60;;
17496;SDS011;62150;43.582;1.456;2023-05-10T15:14:03;2.47;;;1.50;;
17496;SDS011;62150;43.582;1.456;2023-05-10T15:16:31;2.75;;;1.40;;
17496;SDS011;62150;43.582;1.456;2023-05-10T15:18:58;4.70;;;1.60;;
17496;SDS011;62150;43.582;1.456;2023-05-10T15:21:27;4.50;;;1.60;;
17496;SDS011;62150;43.582;1.456;2023-05-10T15:24:00;6.97;;;1.80;;
17496;SDS011;62150;43.582;1.456;2023-05-10T15:26:28;5.47;;;1.98;;
17496;SDS011;62150;43.582;1.456;2023-05-10T15:28:56;4.38;;;1.50;;
17496;SDS011;62150;43.582;1.456;2023-05-10T15:31:24;7.38;;;1.80;;
17496;SDS011;62150;43.582;1.456;2023-05-10T15:33:52;5.70;;;1.80;;
17496;SDS011;62150;43.582;1.456;2023-05-10T15:36:24;5.28;;;1.80;;
17496;SDS011;62150;43.582;1.456;2023-05-10T15:38:54;6.55;;;2.17;;
17496;SDS011;62150;43.582;1.456;2023-05-10T15:41:21;4.57;;;1.63;;
17496;SDS011;62150;43.582;1.456;2023-05-10T15:43:49;3.13;;;1.60;;
17496;SDS011;62150;43.582;1.456;2023-05-10T15:46:17;4.95;;;1.60;;
17496;SDS011;62150;43.582;1.456;2023-05-10T15:48:44;4.93;;;1.60;;
17496;SDS011;62150;43.582;1.456;2023-05-10T15:51:12;3.80;;;1.70;;
17496;SDS011;62150;43.582;1.456;2023-05-10T15:53:39;1.95;;;1.27;;
17496;SDS011;62150;43.582;1.456;2023-05-10T15:56:08;2.70;;;1.35;;
17496;SDS011;62150;43.582;1.456;2023-05-10T15:58:36;4.93;;;1.63;;
17496;SDS011;62150;43.582;1.456;2023-05-10T16:01:04;3.55;;;1.33;;
17496;SDS011;62150;43.582;1.456;2023-05-10T16:03:32;4.95;;;1.60;;
17496;SDS011;62150;43.582;1.456;2023-05-10T16:05:59;4.88;;;1.67;;
17496;SDS011;62150;43.582;1.456;2023-05-10T16:08:27;4.00;;;1.55;;
17496;SDS011;62150;43.582;1.456;2023-05-10T16:10:57;4.25;;;1.85;;
17496;SDS011;62150;43.582;1.456;2023-05-10T16:13:27;6.18;;;1.70;;
17496;SDS011;62150;43.582;1.456;2023-05-10T16:15:54;7.30;;;1.75;;
17496;SDS011;62150;43.582;1.456;2023-05-10T16:18:22;5.55;;;1.73;;
17496;SDS011;62150;43.582;1.456;2023-05-10T16:20:50;4.07;;;1.60;;
17496;SDS011;62150;43.582;1.456;2023-05-10T16:23:18;4.93;;;1.73;;
17496;SDS011;62150;43.582;1.456;2023-05-10T16:25:46;3.88;;;1.58;;
17496;SDS011;62150;43.582;1.456;2023-05-10T16:28:13;6.70;;;1.80;;
17496;SDS011;62150;43.582;1.456;2023-05-10T16:30:42;5.70;;;1.75;;
17496;SDS011;62150;43.582;1.456;2023-05-10T16:33:11;5.82;;;1.75;;
17496;SDS011;62150;43.582;1.456;2023-05-10T16:35:39;4.47;;;1.60;;
17496;SDS011;62150;43.582;1.456;2023-05-10T16:38:06;7.03;;;2.00;;
17496;SDS011;62150;43.582;1.456;2023-05-10T16:40:34;5.45;;;1.95;;
17496;SDS011;62150;43.582;1.456;2023-05-10T16:43:02;6.60;;;1.80;;
17496;SDS011;62150;43.582;1.456;2023-05-10T16:45:30;4.32;;;1.50;;
17496;SDS011;62150;43.582;1.456;2023-05-10T16:47:58;5.93;;;1.90;;
17496;SDS011;62150;43.582;1.456;2023-05-10T16:50:26;5.70;;;1.65;;
17496;SDS011;62150;43.582;1.456;2023-05-10T16:52:54;7.97;;;2.05;;
17496;SDS011;62150;43.582;1.456;2023-05-10T16:55:21;5.25;;;1.73;;
17496;SDS011;62150;43.582;1.456;2023-05-10T16:57:49;4.00;;;1.58;;
17496;SDS011;62150;43.582;1.456;2023-05-10T17:00:22;4.35;;;1.50;;
17496;SDS011;62150;43.582;1.456;2023-05-10T17:02:50;5.80;;;1.80;;
17496;SDS011;62150;43.582;1.456;2023-05-10T17:05:20;7.05;;;1.85;;
17496;SDS011;62150;43.582;1.456;2023-05-10T17:07:47;3.65;;;1.70;;
17496;SDS011;62150;43.582;1.456;2023-05-10T17:10:15;5.80;;;1.67;;
17496;SDS011;62150;43.582;1.456;2023-05-10T17:12:42;5.30;;;1.90;;
17496;SDS011;62150;43.582;1.456;2023-05-10T17:15:10;8.27;;;1.80;;
17496;SDS011;62150;43.582;1.456;2023-05-10T17:17:40;4.35;;;1.80;;
17496;SDS011;62150;43.582;1.456;2023-05-10T17:20:08;4.75;;;1.70;;
17496;SDS011;62150;43.582;1.456;2023-05-10T17:22:37;3.40;;;1.70;;
17496;SDS011;62150;43.582;1.456;2023-05-10T17:25:05;3.55;;;1.70;;
17496;SDS011;62150;43.582;1.456;2023-05-10T17:27:33;4.80;;;1.65;;
17496;SDS011;62150;43.582;1.456;2023-05-10T17:30:00;6.00;;;1.75;;
17496;SDS011;62150;43.582;1.456;2023-05-10T17:32:28;3.58;;;1.70;;
17496;SDS011;62150;43.582;1.456;2023-05-10T17:34:55;4.10;;;1.65;;
17496;SDS011;62150;43.582;1.456;2023-05-10T17:37:23;4.28;;;1.90;;
17496;SDS011;62150;43.582;1.456;2023-05-10T17:39:52;5.78;;;2.10;;
17496;SDS011;62150;43.582;1.456;2023-05-10T17:42:20;4.23;;;1.70;;
17496;SDS011;62150;43.582;1.456;2023-05-10T17:44:47;5.40;;;1.90;;
17496;SDS011;62150;43.582;1.456;2023-05-10T17:47:16;3.92;;;1.70;;
17496;SDS011;62150;43.582;1.456;2023-05-10T17:49:43;5.28;;;1.77;;
17496;SDS011;62150;43.582;1.456;2023-05-10T17:52:11;4.63;;;1.80;;
17496;SDS011;62150;43.582;1.456;2023-05-10T17:54:38;4.68;;;1.77;;
17496;SDS011;62150;43.582;1.456;2023-05-10T17:57:07;6.40;;;2.10;;
17496;SDS011;62150;43.582;1.456;2023-05-10T17:59:34;6.97;;;1.95;;
17496;SDS011;62150;43.582;1.456;2023-05-10T18:02:02;6.38;;;1.90;;
17496;SDS011;62150;43.582;1.456;2023-05-10T18:04:29;3.70;;;1.77;;
17496;SDS011;62150;43.582;1.456;2023-05-10T18:06:58;6.32;;;1.92;;
17496;SDS011;62150;43.582;1.456;2023-05-10T18:09:26;4.47;;;1.67;;
17496;SDS011;62150;43.582;1.456;2023-05-10T18:11:53;4.05;;;1.70;;
17496;SDS011;62150;43.582;1.456;2023-05-10T18:14:22;3.90;;;1.63;;
17496;SDS011;62150;43.582;1.456;2023-05-10T18:16:52;3.97;;;1.63;;
17496;SDS011;62150;43.582;1.456;2023-05-10T18:19:20;3.92;;;1.60;;
17496;SDS011;62150;43.582;1.456;2023-05-10T18:21:49;4.70;;;1.73;;
17496;SDS011;62150;43.582;1.456;2023-05-10T18:24:17;4.40;;;2.05;;
17496;SDS011;62150;43.582;1.456;2023-05-10T18:26:46;6.95;;;1.75;;
17496;SDS011;62150;43.582;1.456;2023-05-10T18:29:13;4.43;;;1.90;;
17496;SDS011;62150;43.582;1.456;2023-05-10T18:31:42;5.07;;;1.80;;
17496;SDS011;62150;43.582;1.456;2023-05-10T18:34:14;6.22;;;2.10;;
17496;SDS011;62150;43.582;1.456;2023-05-10T18:36:43;7.50;;;2.00;;
17496;SDS011;62150;43.582;1.456;2023-05-10T18:39:10;6.55;;;2.05;;
17496;SDS011;62150;43.582;1.456;2023-05-10T18:41:38;4.03;;;1.60;;
17496;SDS011;62150;43.582;1.456;2023-05-10T18:44:05;4.43;;;1.90;;
17496;SDS011;62150;43.582;1.456;2023-05-10T18:46:33;5.25;;;1.80;;
17496;SDS011;62150;43.582;1.456;2023-05-10T18:49:02;5.50;;;1.93;;
17496;SDS011;62150;43.582;1.456;2023-05-10T18:51:30;6.80;;;1.90;;
17496;SDS011;62150;43.582;1.456;2023-05-10T18:53:58;4.95;;;2.00;;
17496;SDS011;62150;43.582;1.456;2023-05-10T18:56:25;5.28;;;1.90;;
17496;SDS011;62150;43.582;1.456;2023-05-10T18:58:53;4.87;;;1.70;;
17496;SDS011;62150;43.582;1.456;2023-05-10T19:01:20;3.90;;;1.70;;
17496;SDS011;62150;43.582;1.456;2023-05-10T19:03:48;5.77;;;1.80;;
17496;SDS011;62150;43.582;1.456;2023-05-10T19:06:16;6.07;;;1.60;;
17496;SDS011;62150;43.582;1.456;2023-05-10T19:08:44;2.50;;;1.60;;
17496;SDS011;62150;43.582;1.456;2023-05-10T19:11:11;5.03;;;1.67;;
17496;SDS011;62150;43.582;1.456;2023-05-10T19:13:39;5.70;;;1.80;;
17496;SDS011;62150;43.582;1.456;2023-05-10T19:16:09;4.88;;;1.75;;
17496;SDS011;62150;43.582;1.456;2023-05-10T19:18:39;7.18;;;2.20;;
17496;SDS011;62150;43.582;1.456;2023-05-10T19:21:07;4.03;;;1.90;;
17496;SDS011;62150;43.582;1.456;2023-05-10T19:23:36;4.20;;;2.10;;
17496;SDS011;62150;43.582;1.456;2023-05-10T19:26:04;5.57;;;2.10;;
17496;SDS011;62150;43.582;1.456;2023-05-10T19:28:31;7.63;;;2.00;;
17496;SDS011;62150;43.582;1.456;2023-05-10T19:30:59;3.87;;;1.77;;
17496;SDS011;62150;43.582;1.456;2023-05-10T19:33:26;6.70;;;2.30;;
17496;SDS011;62150;43.582;1.456;2023-05-10T19:35:54;4.97;;;2.00;;
17496;SDS011;62150;43.582;1.456;2023-05-10T19:38:22;7.68;;;2.17;;
17496;SDS011;62150;43.582;1.456;2023-05-10T19:40:53;6.63;;;1.92;;
17496;SDS011;62150;43.582;1.456;2023-05-10T19:43:22;7.07;;;2.40;;
17496;SDS011;62150;43.582;1.456;2023-05-10T19:45:49;5.80;;;2.13;;
17496;SDS011;62150;43.582;1.456;2023-05-10T19:48:17;6.53;;;2.00;;
17496;SDS011;62150;43.582;1.456;2023-05-10T19:50:45;5.38;;;1.95;;
17496;SDS011;62150;43.582;1.456;2023-05-10T19:53:12;5.97;;;1.87;;
17496;SDS011;62150;43.582;1.456;2023-05-10T19:55:40;6.07;;;1.93;;
17496;SDS011;62150;43.582;1.456;2023-05-10T19:58:09;4.73;;;1.87;;
17496;SDS011;62150;43.582;1.456;2023-05-10T20:00:36;6.07;;;2.00;;
17496;SDS011;62150;43.582;1.456;2023-05-10T20:03:04;4.60;;;1.90;;
17496;SDS011;62150;43.582;1.456;2023-05-10T20:05:31;5.00;;;2.07;;
17496;SDS011;62150;43.582;1.456;2023-05-10T20:07:59;4.13;;;1.80;;
17496;SDS011;62150;43.582;1.456;2023-05-10T20:10:26;7.27;;;1.63;;
17496;SDS011;62150;43.582;1.456;2023-05-10T20:12:54;3.27;;;1.70;;
17496;SDS011;62150;43.582;1.456;2023-05-10T20:15:24;3.87;;;1.60;;